sensor_id;sensor_type;location;lat;lon;timestamp;pressure;altitude;pressure_sealevel;temperature;humidity
43818;BME280;29868;47.360;18.984;2023-02-11T00:01:35;102391.97;;;-4.88;100.00
43818;BME280;29868;47.360;18.984;2023-02-11T00:04:02;102397.84;;;-4.96;100.00
43818;BME280;29868;47.360;18.984;2023-02-11T00:06:29;102386.97;;;-4.95;100.00
43818;BME280;29868;47.360;18.984;2023-02-11T00:08:55;102385.47;;;-4.93;100.00
43818;BME280;29868;47.360;18.984;2023-02-11T00:11:22;102385.38;;;-5.02;100.00
43818;BME280;29868;47.360;18.984;2023-02-11T00:13:50;102378.88;;;-5.00;100.00
43818;BME280;29868;47.360;18.984;2023-02-11T00:16:18;102378.63;;;-4.94;100.00
43818;BME280;29868;47.360;18.984;2023-02-11T00:18:45;102383.78;;;-4.85;100.00
43818;BME280;29868;47.360;18.984;2023-02-11T00:21:15;102383.16;;;-4.76;100.00
43818;BME280;29868;47.360;18.984;2023-02-11T00:23:41;102384.91;;;-4.68;100.00
43818;BME280;29868;47.360;18.984;2023-02-11T00:26:22;102365.22;;;-4.54;100.00
43818;BME280;29868;47.360;18.984;2023-02-11T00:28:48;102371.75;;;-4.56;100.00
43818;BME280;29868;47.360;18.984;2023-02-11T00:31:15;102371.00;;;-4.55;100.00
43818;BME280;29868;47.360;18.984;2023-02-11T00:33:41;102370.44;;;-4.53;100.00
43818;BME280;29868;47.360;18.984;2023-02-11T00:36:13;102372.72;;;-4.47;100.00
43818;BME280;29868;47.360;18.984;2023-02-11T00:38:42;102374.06;;;-4.51;100.00
43818;BME280;29868;47.360;18.984;2023-02-11T00:41:07;102372.63;;;-4.56;100.00
43818;BME280;29868;47.360;18.984;2023-02-11T00:43:34;102370.34;;;-4.61;100.00
43818;BME280;29868;47.360;18.984;2023-02-11T00:45:59;102374.00;;;-4.67;100.00
43818;BME280;29868;47.360;18.984;2023-02-11T00:48:25;102368.88;;;-4.59;100.00
43818;BME280;29868;47.360;18.984;2023-02-11T00:50:50;102364.69;;;-4.59;100.00
43818;BME280;29868;47.360;18.984;2023-02-11T00:53:16;102363.47;;;-4.62;100.00
43818;BME280;29868;47.360;18.984;2023-02-11T00:55:41;102362.22;;;-4.66;100.00
43818;BME280;29868;47.360;18.984;2023-02-11T00:58:06;102358.22;;;-4.80;100.00
43818;BME280;29868;47.360;18.984;2023-02-11T01:00:32;102357.53;;;-4.86;100.00
43818;BME280;29868;47.360;18.984;2023-02-11T01:02:57;102361.44;;;-4.97;100.00
43818;BME280;29868;47.360;18.984;2023-02-11T01:05:22;102367.25;;;-4.98;100.00
43818;BME280;29868;47.360;18.984;2023-02-11T01:07:48;102360.59;;;-5.04;100.00
43818;BME280;29868;47.360;18.984;2023-02-11T01:10:13;102350.91;;;-5.16;100.00
43818;BME280;29868;47.360;18.984;2023-02-11T01:12:39;102336.69;;;-5.22;100.00
43818;BME280;29868;47.360;18.984;2023-02-11T01:15:06;102343.56;;;-5.21;100.00
43818;BME280;29868;47.360;18.984;2023-02-11T01:17:33;102343.94;;;-5.25;100.00
43818;BME280;29868;47.360;18.984;2023-02-11T01:19:58;102338.34;;;-5.23;100.00
43818;BME280;29868;47.360;18.984;2023-02-11T01:22:24;102336.78;;;-5.14;100.00
43818;BME280;29868;47.360;18.984;2023-02-11T01:24:49;102320.69;;;-5.14;100.00
43818;BME280;29868;47.360;18.984;2023-02-11T01:27:14;102327.91;;;-5.10;100.00
43818;BME280;29868;47.360;18.984;2023-02-11T01:29:40;102328.06;;;-5.08;100.00
43818;BME280;29868;47.360;18.984;2023-02-11T01:32:05;102320.50;;;-5.16;100.00
43818;BME280;29868;47.360;18.984;2023-02-11T01:34:31;102324.81;;;-5.07;100.00
43818;BME280;29868;47.360;18.984;2023-02-11T01:36:58;102314.69;;;-5.07;100.00
43818;BME280;29868;47.360;18.984;2023-02-11T01:39:25;102319.16;;;-5.05;100.00
43818;BME280;29868;47.360;18.984;2023-02-11T01:41:51;102317.22;;;-5.07;100.00
43818;BME280;29868;47.360;18.984;2023-02-11T01:44:27;102312.63;;;-5.03;100.00
43818;BME280;29868;47.360;18.984;2023-02-11T01:46:53;102316.81;;;-5.03;100.00
43818;BME280;29868;47.360;18.984;2023-02-11T01:49:29;102313.75;;;-5.08;100.00
43818;BME280;29868;47.360;18.984;2023-02-11T01:52:00;102306.31;;;-5.06;100.00
43818;BME280;29868;47.360;18.984;2023-02-11T01:54:29;102305.19;;;-5.01;100.00
43818;BME280;29868;47.360;18.984;2023-02-11T01:57:17;102295.22;;;-5.00;100.00
43818;BME280;29868;47.360;18.984;2023-02-11T02:02:36;102301.63;;;-4.72;100.00
43818;BME280;29868;47.360;18.984;2023-02-11T02:05:09;102301.69;;;-4.63;100.00
43818;BME280;29868;47.360;18.984;2023-02-11T02:07:53;102303.28;;;-4.56;100.00
43818;BME280;29868;47.360;18.984;2023-02-11T02:10:23;102304.16;;;-4.56;100.00
43818;BME280;29868;47.360;18.984;2023-02-11T02:12:49;102297.63;;;-4.54;100.00
43818;BME280;29868;47.360;18.984;2023-02-11T02:17:59;102299.41;;;-4.37;100.00
43818;BME280;29868;47.360;18.984;2023-02-11T02:23:33;102298.78;;;-4.43;100.00
43818;BME280;29868;47.360;18.984;2023-02-11T02:26:45;102299.81;;;-4.41;100.00
43818;BME280;29868;47.360;18.984;2023-02-11T02:37:04;102290.34;;;-4.35;100.00
43818;BME280;29868;47.360;18.984;2023-02-11T02:39:33;102298.16;;;-4.25;100.00
43818;BME280;29868;47.360;18.984;2023-02-11T02:42:01;102289.41;;;-4.20;100.00
43818;BME280;29868;47.360;18.984;2023-02-11T02:44:27;102295.16;;;-4.29;100.00
43818;BME280;29868;47.360;18.984;2023-02-11T02:46:53;102291.56;;;-4.31;100.00
43818;BME280;29868;47.360;18.984;2023-02-11T02:49:18;102284.59;;;-4.25;100.00
43818;BME280;29868;47.360;18.984;2023-02-11T02:54:47;102282.38;;;-4.22;100.00
43818;BME280;29868;47.360;18.984;2023-02-11T03:05:30;102274.63;;;-4.55;100.00
43818;BME280;29868;47.360;18.984;2023-02-11T03:08:26;102277.25;;;-4.47;100.00
43818;BME280;29868;47.360;18.984;2023-02-11T03:10:55;102273.97;;;-4.46;100.00
43818;BME280;29868;47.360;18.984;2023-02-11T03:13:25;102273.41;;;-4.59;100.00
43818;BME280;29868;47.360;18.984;2023-02-11T03:15:54;102269.81;;;-4.61;100.00
43818;BME280;29868;47.360;18.984;2023-02-11T03:18:24;102276.34;;;-4.79;100.00
43818;BME280;29868;47.360;18.984;2023-02-11T03:20:51;102270.31;;;-4.88;100.00
43818;BME280;29868;47.360;18.984;2023-02-11T03:23:22;102270.19;;;-4.97;100.00
43818;BME280;29868;47.360;18.984;2023-02-11T03:25:55;102269.06;;;-5.07;100.00
43818;BME280;29868;47.360;18.984;2023-02-11T03:28:30;102267.97;;;-5.09;100.00
43818;BME280;29868;47.360;18.984;2023-02-11T03:36:47;102260.84;;;-5.21;100.00
43818;BME280;29868;47.360;18.984;2023-02-11T03:39:18;102264.75;;;-5.31;100.00
43818;BME280;29868;47.360;18.984;2023-02-11T03:41:47;102250.69;;;-5.36;100.00
43818;BME280;29868;47.360;18.984;2023-02-11T03:44:14;102250.19;;;-5.41;100.00
43818;BME280;29868;47.360;18.984;2023-02-11T03:46:46;102243.22;;;-5.51;100.00
43818;BME280;29868;47.360;18.984;2023-02-11T03:49:14;102236.00;;;-5.55;100.00
43818;BME280;29868;47.360;18.984;2023-02-11T03:51:41;102229.56;;;-5.60;100.00
43818;BME280;29868;47.360;18.984;2023-02-11T03:54:10;102231.25;;;-5.68;100.00
43818;BME280;29868;47.360;18.984;2023-02-11T03:56:48;102224.75;;;-5.73;100.00
43818;BME280;29868;47.360;18.984;2023-02-11T03:59:15;102215.44;;;-5.81;100.00
43818;BME280;29868;47.360;18.984;2023-02-11T04:01:41;102214.97;;;-5.70;100.00
43818;BME280;29868;47.360;18.984;2023-02-11T04:04:06;102216.78;;;-5.69;100.00
43818;BME280;29868;47.360;18.984;2023-02-11T04:06:32;102212.69;;;-5.75;100.00
43818;BME280;29868;47.360;18.984;2023-02-11T04:08:57;102207.09;;;-5.80;100.00
43818;BME280;29868;47.360;18.984;2023-02-11T04:11:22;102201.38;;;-5.86;100.00
43818;BME280;29868;47.360;18.984;2023-02-11T04:13:48;102206.66;;;-5.92;100.00
43818;BME280;29868;47.360;18.984;2023-02-11T04:16:13;102201.88;;;-5.97;100.00
43818;BME280;29868;47.360;18.984;2023-02-11T04:18:39;102199.50;;;-5.96;100.00
43818;BME280;29868;47.360;18.984;2023-02-11T04:21:04;102195.56;;;-6.01;100.00
43818;BME280;29868;47.360;18.984;2023-02-11T04:23:30;102199.88;;;-6.00;100.00
43818;BME280;29868;47.360;18.984;2023-02-11T04:25:55;102189.81;;;-6.07;100.00
43818;BME280;29868;47.360;18.984;2023-02-11T04:28:20;102183.13;;;-6.06;100.00
43818;BME280;29868;47.360;18.984;2023-02-11T04:30:48;102181.31;;;-6.07;100.00
43818;BME280;29868;47.360;18.984;2023-02-11T04:33:14;102183.50;;;-6.10;100.00
43818;BME280;29868;47.360;18.984;2023-02-11T04:35:39;102186.44;;;-6.15;100.00
43818;BME280;29868;47.360;18.984;2023-02-11T04:38:05;102187.63;;;-6.04;100.00
43818;BME280;29868;47.360;18.984;2023-02-11T04:40:30;102180.28;;;-6.09;100.00
43818;BME280;29868;47.360;18.984;2023-02-11T04:42:56;102184.28;;;-6.19;100.00
43818;BME280;29868;47.360;18.984;2023-02-11T04:45:22;102179.13;;;-6.27;100.00
43818;BME280;29868;47.360;18.984;2023-02-11T04:47:47;102179.31;;;-6.33;100.00
43818;BME280;29868;47.360;18.984;2023-02-11T04:50:13;102184.44;;;-6.40;100.00
43818;BME280;29868;47.360;18.984;2023-02-11T04:52:38;102177.06;;;-6.46;100.00
43818;BME280;29868;47.360;18.984;2023-02-11T04:55:04;102177.81;;;-6.47;100.00
43818;BME280;29868;47.360;18.984;2023-02-11T04:57:29;102180.88;;;-6.49;100.00
43818;BME280;29868;47.360;18.984;2023-02-11T04:59:55;102185.91;;;-6.42;100.00
43818;BME280;29868;47.360;18.984;2023-02-11T05:02:20;102183.03;;;-6.45;100.00
43818;BME280;29868;47.360;18.984;2023-02-11T05:04:46;102185.94;;;-6.49;100.00
43818;BME280;29868;47.360;18.984;2023-02-11T05:07:11;102193.91;;;-6.53;100.00
43818;BME280;29868;47.360;18.984;2023-02-11T05:09:37;102182.69;;;-6.55;100.00
43818;BME280;29868;47.360;18.984;2023-02-11T05:12:02;102193.03;;;-6.61;100.00
43818;BME280;29868;47.360;18.984;2023-02-11T05:14:28;102190.66;;;-6.59;100.00
43818;BME280;29868;47.360;18.984;2023-02-11T05:16:53;102195.53;;;-6.54;100.00
43818;BME280;29868;47.360;18.984;2023-02-11T05:19:18;102197.00;;;-6.63;100.00
43818;BME280;29868;47.360;18.984;2023-02-11T05:21:44;102194.31;;;-6.65;100.00
43818;BME280;29868;47.360;18.984;2023-02-11T05:24:09;102182.44;;;-6.73;100.00
43818;BME280;29868;47.360;18.984;2023-02-11T05:26:35;102189.13;;;-6.73;100.00
43818;BME280;29868;47.360;18.984;2023-02-11T05:29:00;102184.25;;;-6.79;100.00
43818;BME280;29868;47.360;18.984;2023-02-11T05:31:25;102181.56;;;-6.80;100.00
43818;BME280;29868;47.360;18.984;2023-02-11T05:33:51;102181.38;;;-6.82;100.00
43818;BME280;29868;47.360;18.984;2023-02-11T05:36:16;102186.44;;;-6.82;100.00
43818;BME280;29868;47.360;18.984;2023-02-11T05:38:42;102186.28;;;-6.83;100.00
43818;BME280;29868;47.360;18.984;2023-02-11T05:41:08;102181.06;;;-6.85;100.00
43818;BME280;29868;47.360;18.984;2023-02-11T05:43:34;102181.44;;;-6.89;100.00
43818;BME280;29868;47.360;18.984;2023-02-11T05:46:02;102184.28;;;-6.86;100.00
43818;BME280;29868;47.360;18.984;2023-02-11T05:48:27;102170.97;;;-6.92;100.00
43818;BME280;29868;47.360;18.984;2023-02-11T05:50:53;102175.13;;;-6.93;100.00
43818;BME280;29868;47.360;18.984;2023-02-11T05:53:18;102175.63;;;-6.81;100.00
43818;BME280;29868;47.360;18.984;2023-02-11T05:55:43;102174.53;;;-6.83;100.00
43818;BME280;29868;47.360;18.984;2023-02-11T05:58:09;102169.69;;;-6.81;100.00
43818;BME280;29868;47.360;18.984;2023-02-11T06:00:35;102172.00;;;-6.83;100.00
43818;BME280;29868;47.360;18.984;2023-02-11T06:03:01;102174.38;;;-6.84;100.00
43818;BME280;29868;47.360;18.984;2023-02-11T06:05:28;102177.41;;;-6.80;100.00
43818;BME280;29868;47.360;18.984;2023-02-11T06:07:53;102185.16;;;-6.78;100.00
43818;BME280;29868;47.360;18.984;2023-02-11T06:10:19;102186.59;;;-6.73;100.00
43818;BME280;29868;47.360;18.984;2023-02-11T06:12:44;102190.16;;;-6.64;100.00
43818;BME280;29868;47.360;18.984;2023-02-11T06:15:10;102194.63;;;-6.54;100.00
43818;BME280;29868;47.360;18.984;2023-02-11T06:17:35;102189.16;;;-6.43;100.00
43818;BME280;29868;47.360;18.984;2023-02-11T06:20:04;102188.19;;;-6.37;100.00
43818;BME280;29868;47.360;18.984;2023-02-11T06:22:31;102188.31;;;-6.21;100.00
43818;BME280;29868;47.360;18.984;2023-02-11T06:24:56;102189.31;;;-6.12;100.00
43818;BME280;29868;47.360;18.984;2023-02-11T06:27:22;102192.13;;;-6.01;100.00
43818;BME280;29868;47.360;18.984;2023-02-11T06:29:48;102186.84;;;-5.80;100.00
43818;BME280;29868;47.360;18.984;2023-02-11T06:32:14;102178.75;;;-5.62;100.00
43818;BME280;29868;47.360;18.984;2023-02-11T06:34:39;102171.63;;;-5.34;100.00
43818;BME280;29868;47.360;18.984;2023-02-11T06:37:05;102171.22;;;-5.14;100.00
43818;BME280;29868;47.360;18.984;2023-02-11T06:39:31;102168.34;;;-5.01;100.00
43818;BME280;29868;47.360;18.984;2023-02-11T06:41:56;102163.59;;;-4.82;100.00
43818;BME280;29868;47.360;18.984;2023-02-11T06:44:22;102168.56;;;-4.75;100.00
43818;BME280;29868;47.360;18.984;2023-02-11T06:46:48;102167.78;;;-4.58;100.00
43818;BME280;29868;47.360;18.984;2023-02-11T06:49:13;102173.00;;;-4.41;100.00
43818;BME280;29868;47.360;18.984;2023-02-11T06:51:39;102176.09;;;-4.28;100.00
43818;BME280;29868;47.360;18.984;2023-02-11T06:54:05;102168.66;;;-4.18;100.00
43818;BME280;29868;47.360;18.984;2023-02-11T06:56:31;102169.09;;;-3.97;100.00
43818;BME280;29868;47.360;18.984;2023-02-11T06:58:56;102171.22;;;-3.84;100.00
43818;BME280;29868;47.360;18.984;2023-02-11T07:01:23;102157.28;;;-3.63;100.00
43818;BME280;29868;47.360;18.984;2023-02-11T07:03:49;102159.09;;;-3.45;100.00
43818;BME280;29868;47.360;18.984;2023-02-11T07:06:17;102156.00;;;-3.34;100.00
43818;BME280;29868;47.360;18.984;2023-02-11T07:08:43;102162.59;;;-3.27;100.00
43818;BME280;29868;47.360;18.984;2023-02-11T07:11:28;102160.66;;;-3.12;100.00
43818;BME280;29868;47.360;18.984;2023-02-11T07:13:58;102160.09;;;-3.01;100.00
43818;BME280;29868;47.360;18.984;2023-02-11T07:16:23;102153.78;;;-2.96;100.00
43818;BME280;29868;47.360;18.984;2023-02-11T07:18:49;102156.50;;;-2.77;100.00
43818;BME280;29868;47.360;18.984;2023-02-11T07:21:17;102155.31;;;-2.63;100.00
43818;BME280;29868;47.360;18.984;2023-02-11T07:23:43;102159.78;;;-2.52;100.00
43818;BME280;29868;47.360;18.984;2023-02-11T07:26:12;102167.56;;;-2.42;100.00
43818;BME280;29868;47.360;18.984;2023-02-11T07:28:38;102155.84;;;-2.23;100.00
43818;BME280;29868;47.360;18.984;2023-02-11T07:31:18;102160.69;;;-1.98;100.00
43818;BME280;29868;47.360;18.984;2023-02-11T07:33:44;102163.84;;;-1.92;100.00
43818;BME280;29868;47.360;18.984;2023-02-11T07:36:14;102166.75;;;-1.70;100.00
43818;BME280;29868;47.360;18.984;2023-02-11T07:38:40;102166.16;;;-1.40;100.00
43818;BME280;29868;47.360;18.984;2023-02-11T07:41:09;102154.41;;;-1.10;100.00
43818;BME280;29868;47.360;18.984;2023-02-11T07:43:35;102159.88;;;-0.97;100.00
43818;BME280;29868;47.360;18.984;2023-02-11T07:46:06;102160.06;;;-0.66;100.00
43818;BME280;29868;47.360;18.984;2023-02-11T07:48:32;102159.28;;;-0.46;100.00
43818;BME280;29868;47.360;18.984;2023-02-11T07:51:12;102158.47;;;-0.27;100.00
43818;BME280;29868;47.360;18.984;2023-02-11T07:53:38;102152.84;;;0.07;100.00
43818;BME280;29868;47.360;18.984;2023-02-11T07:56:05;102154.31;;;0.23;100.00
43818;BME280;29868;47.360;18.984;2023-02-11T07:58:31;102146.28;;;0.39;100.00
43818;BME280;29868;47.360;18.984;2023-02-11T08:01:05;102146.13;;;0.38;100.00
43818;BME280;29868;47.360;18.984;2023-02-11T08:03:32;102140.25;;;0.29;100.00
43818;BME280;29868;47.360;18.984;2023-02-11T08:06:02;102151.09;;;0.26;100.00
43818;BME280;29868;47.360;18.984;2023-02-11T08:08:28;102139.91;;;0.55;100.00
43818;BME280;29868;47.360;18.984;2023-02-11T08:10:53;102136.84;;;0.69;100.00
43818;BME280;29868;47.360;18.984;2023-02-11T08:13:19;102139.94;;;0.65;100.00
43818;BME280;29868;47.360;18.984;2023-02-11T08:15:45;102134.69;;;0.73;100.00
43818;BME280;29868;47.360;18.984;2023-02-11T08:18:11;102137.47;;;0.97;100.00
43818;BME280;29868;47.360;18.984;2023-02-11T08:20:36;102137.31;;;1.16;100.00
43818;BME280;29868;47.360;18.984;2023-02-11T08:23:02;102144.81;;;1.35;100.00
43818;BME280;29868;47.360;18.984;2023-02-11T08:25:29;102149.13;;;1.56;100.00
43818;BME280;29868;47.360;18.984;2023-02-11T08:27:55;102148.50;;;1.49;100.00
43818;BME280;29868;47.360;18.984;2023-02-11T08:30:21;102148.06;;;1.64;100.00
43818;BME280;29868;47.360;18.984;2023-02-11T08:32:46;102144.91;;;1.57;100.00
43818;BME280;29868;47.360;18.984;2023-02-11T08:35:12;102144.28;;;1.81;100.00
43818;BME280;29868;47.360;18.984;2023-02-11T08:37:37;102142.81;;;1.95;100.00
43818;BME280;29868;47.360;18.984;2023-02-11T08:40:04;102140.03;;;1.82;100.00
43818;BME280;29868;47.360;18.984;2023-02-11T08:42:29;102139.50;;;1.64;100.00
43818;BME280;29868;47.360;18.984;2023-02-11T08:44:55;102140.34;;;1.75;100.00
43818;BME280;29868;47.360;18.984;2023-02-11T08:47:20;102141.81;;;1.61;100.00
43818;BME280;29868;47.360;18.984;2023-02-11T08:49:46;102139.63;;;1.55;100.00
43818;BME280;29868;47.360;18.984;2023-02-11T08:52:11;102138.81;;;1.44;100.00
43818;BME280;29868;47.360;18.984;2023-02-11T08:54:37;102138.00;;;1.56;100.00
43818;BME280;29868;47.360;18.984;2023-02-11T08:57:03;102139.31;;;1.73;100.00
43818;BME280;29868;47.360;18.984;2023-02-11T08:59:28;102132.47;;;1.51;100.00
43818;BME280;29868;47.360;18.984;2023-02-11T09:01:54;102136.88;;;1.74;100.00
43818;BME280;29868;47.360;18.984;2023-02-11T09:04:20;102137.53;;;1.72;100.00
43818;BME280;29868;47.360;18.984;2023-02-11T09:06:46;102135.66;;;1.91;100.00
43818;BME280;29868;47.360;18.984;2023-02-11T09:09:13;102138.34;;;1.92;100.00
43818;BME280;29868;47.360;18.984;2023-02-11T09:11:40;102133.41;;;2.06;100.00
43818;BME280;29868;47.360;18.984;2023-02-11T09:14:07;102139.19;;;2.25;100.00
43818;BME280;29868;47.360;18.984;2023-02-11T09:16:35;102126.13;;;2.44;100.00
43818;BME280;29868;47.360;18.984;2023-02-11T09:19:02;102125.50;;;2.58;100.00
43818;BME280;29868;47.360;18.984;2023-02-11T09:21:29;102117.88;;;2.48;100.00
43818;BME280;29868;47.360;18.984;2023-02-11T09:23:55;102118.97;;;2.40;100.00
43818;BME280;29868;47.360;18.984;2023-02-11T09:26:27;102124.09;;;2.40;100.00
43818;BME280;29868;47.360;18.984;2023-02-11T09:28:53;102113.75;;;2.96;100.00
43818;BME280;29868;47.360;18.984;2023-02-11T09:31:23;102120.44;;;3.05;100.00
43818;BME280;29868;47.360;18.984;2023-02-11T09:33:52;102111.78;;;3.15;100.00
43818;BME280;29868;47.360;18.984;2023-02-11T09:36:20;102120.25;;;3.49;100.00
43818;BME280;29868;47.360;18.984;2023-02-11T09:38:47;102118.28;;;3.82;100.00
43818;BME280;29868;47.360;18.984;2023-02-11T09:44:06;102105.50;;;4.07;100.00
43818;BME280;29868;47.360;18.984;2023-02-11T09:46:39;102106.59;;;4.35;100.00
43818;BME280;29868;47.360;18.984;2023-02-11T09:49:06;102098.19;;;4.38;100.00
43818;BME280;29868;47.360;18.984;2023-02-11T09:51:48;102108.94;;;4.57;100.00
43818;BME280;29868;47.360;18.984;2023-02-11T09:54:25;102105.31;;;4.29;100.00
43818;BME280;29868;47.360;18.984;2023-02-11T09:56:52;102100.06;;;4.66;100.00
43818;BME280;29868;47.360;18.984;2023-02-11T09:59:18;102101.69;;;4.77;100.00
43818;BME280;29868;47.360;18.984;2023-02-11T10:01:58;102099.66;;;4.98;100.00
43818;BME280;29868;47.360;18.984;2023-02-11T10:06:56;102090.16;;;5.23;100.00
43818;BME280;29868;47.360;18.984;2023-02-11T10:09:36;102091.78;;;4.96;100.00
43818;BME280;29868;47.360;18.984;2023-02-11T10:12:25;102085.88;;;5.10;100.00
43818;BME280;29868;47.360;18.984;2023-02-11T10:23:31;102057.84;;;5.28;100.00
43818;BME280;29868;47.360;18.984;2023-02-11T10:25:58;102061.47;;;5.45;100.00
43818;BME280;29868;47.360;18.984;2023-02-11T10:28:32;102061.47;;;5.45;100.00
43818;BME280;29868;47.360;18.984;2023-02-11T10:31:16;102063.59;;;5.24;100.00
43818;BME280;29868;47.360;18.984;2023-02-11T10:36:14;102058.63;;;5.14;100.00
43818;BME280;29868;47.360;18.984;2023-02-11T10:38:40;102043.41;;;5.04;100.00
43818;BME280;29868;47.360;18.984;2023-02-11T10:41:08;102043.78;;;5.23;100.00
43818;BME280;29868;47.360;18.984;2023-02-11T10:43:35;102046.13;;;5.33;100.00
43818;BME280;29868;47.360;18.984;2023-02-11T10:46:03;102043.50;;;5.60;100.00
43818;BME280;29868;47.360;18.984;2023-02-11T10:48:42;102029.94;;;5.63;100.00
43818;BME280;29868;47.360;18.984;2023-02-11T10:53:37;102031.75;;;5.37;100.00
43818;BME280;29868;47.360;18.984;2023-02-11T10:56:05;102033.16;;;5.32;100.00
43818;BME280;29868;47.360;18.984;2023-02-11T10:58:43;102023.25;;;5.38;100.00
43818;BME280;29868;47.360;18.984;2023-02-11T11:01:10;102013.84;;;5.39;100.00
43818;BME280;29868;47.360;18.984;2023-02-11T11:03:46;102014.22;;;5.45;100.00
43818;BME280;29868;47.360;18.984;2023-02-11T11:06:12;102015.03;;;5.72;100.00
43818;BME280;29868;47.360;18.984;2023-02-11T11:08:46;102014.81;;;5.95;100.00
43818;BME280;29868;47.360;18.984;2023-02-11T11:11:23;102007.22;;;6.41;100.00
43818;BME280;29868;47.360;18.984;2023-02-11T11:18:45;102002.34;;;7.06;91.04
43818;BME280;29868;47.360;18.984;2023-02-11T11:23:59;101992.84;;;6.91;87.45
43818;BME280;29868;47.360;18.984;2023-02-11T11:26:37;101989.56;;;6.93;85.68
43818;BME280;29868;47.360;18.984;2023-02-11T11:29:12;101981.44;;;7.33;84.92
43818;BME280;29868;47.360;18.984;2023-02-11T11:32:01;101966.56;;;7.29;85.45
43818;BME280;29868;47.360;18.984;2023-02-11T11:34:33;101969.25;;;7.47;84.11
43818;BME280;29868;47.360;18.984;2023-02-11T11:37:01;101958.69;;;7.59;83.23
43818;BME280;29868;47.360;18.984;2023-02-11T11:39:34;101952.53;;;7.40;83.47
43818;BME280;29868;47.360;18.984;2023-02-11T11:42:19;101954.81;;;7.50;82.45
43818;BME280;29868;47.360;18.984;2023-02-11T11:45:01;101947.41;;;7.42;81.16
43818;BME280;29868;47.360;18.984;2023-02-11T11:47:43;101943.41;;;7.63;80.75
43818;BME280;29868;47.360;18.984;2023-02-11T11:50:34;101943.81;;;7.71;77.48
43818;BME280;29868;47.360;18.984;2023-02-11T11:53:23;101944.19;;;7.78;74.66
43818;BME280;29868;47.360;18.984;2023-02-11T11:58:36;101933.38;;;7.53;72.40
43818;BME280;29868;47.360;18.984;2023-02-11T12:21:21;101886.47;;;8.48;68.75
43818;BME280;29868;47.360;18.984;2023-02-11T12:37:45;101833.94;;;8.68;67.50
43818;BME280;29868;47.360;18.984;2023-02-11T12:40:30;101827.25;;;8.56;66.59
43818;BME280;29868;47.360;18.984;2023-02-11T12:53:49;101820.03;;;8.31;65.60
43818;BME280;29868;47.360;18.984;2023-02-11T12:58:49;101812.13;;;8.45;65.43
43818;BME280;29868;47.360;18.984;2023-02-11T13:01:24;101811.06;;;8.60;64.99
43818;BME280;29868;47.360;18.984;2023-02-11T13:06:51;101804.22;;;8.42;63.78
43818;BME280;29868;47.360;18.984;2023-02-11T13:09:22;101796.56;;;8.10;64.43
43818;BME280;29868;47.360;18.984;2023-02-11T13:11:51;101788.59;;;8.05;65.17
43818;BME280;29868;47.360;18.984;2023-02-11T13:14:35;101795.78;;;8.11;65.77
43818;BME280;29868;47.360;18.984;2023-02-11T13:17:09;101792.88;;;8.04;65.75
43818;BME280;29868;47.360;18.984;2023-02-11T13:19:49;101791.47;;;8.11;65.94
43818;BME280;29868;47.360;18.984;2023-02-11T13:22:23;101793.16;;;8.28;64.80
43818;BME280;29868;47.360;18.984;2023-02-11T13:28:09;101783.00;;;8.33;64.84
43818;BME280;29868;47.360;18.984;2023-02-11T13:30:40;101769.34;;;8.36;64.58
43818;BME280;29868;47.360;18.984;2023-02-11T13:35:44;101760.56;;;8.50;63.16
43818;BME280;29868;47.360;18.984;2023-02-11T13:38:23;101759.13;;;8.57;62.34
43818;BME280;29868;47.360;18.984;2023-02-11T13:43:32;101759.22;;;8.40;62.31
43818;BME280;29868;47.360;18.984;2023-02-11T13:46:01;101761.91;;;8.42;62.78
43818;BME280;29868;47.360;18.984;2023-02-11T13:48:32;101762.75;;;8.24;62.66
43818;BME280;29868;47.360;18.984;2023-02-11T13:51:05;101759.34;;;8.25;62.89
43818;BME280;29868;47.360;18.984;2023-02-11T13:53:49;101764.31;;;8.21;63.05
43818;BME280;29868;47.360;18.984;2023-02-11T13:56:35;101766.09;;;8.22;63.04
43818;BME280;29868;47.360;18.984;2023-02-11T13:59:05;101766.03;;;8.20;63.54
43818;BME280;29868;47.360;18.984;2023-02-11T14:04:32;101765.00;;;8.17;63.05
43818;BME280;29868;47.360;18.984;2023-02-11T14:13:34;101776.22;;;8.17;64.02
43818;BME280;29868;47.360;18.984;2023-02-11T14:16:09;101767.00;;;8.22;63.14
43818;BME280;29868;47.360;18.984;2023-02-11T14:18:36;101753.22;;;8.23;63.57
43818;BME280;29868;47.360;18.984;2023-02-11T14:21:12;101743.16;;;8.29;62.50
43818;BME280;29868;47.360;18.984;2023-02-11T14:23:39;101741.75;;;8.36;62.51
43818;BME280;29868;47.360;18.984;2023-02-11T14:26:24;101741.25;;;8.43;61.74
43818;BME280;29868;47.360;18.984;2023-02-11T14:31:54;101751.59;;;8.43;60.95
43818;BME280;29868;47.360;18.984;2023-02-11T14:42:42;101773.78;;;8.20;59.59
43818;BME280;29868;47.360;18.984;2023-02-11T14:45:12;101774.88;;;8.25;59.83
43818;BME280;29868;47.360;18.984;2023-02-11T14:47:45;101770.38;;;8.21;60.71
43818;BME280;29868;47.360;18.984;2023-02-11T14:50:32;101770.09;;;8.15;60.58
43818;BME280;29868;47.360;18.984;2023-02-11T14:53:02;101767.81;;;8.03;61.74
43818;BME280;29868;47.360;18.984;2023-02-11T14:55:32;101766.16;;;8.05;61.80
43818;BME280;29868;47.360;18.984;2023-02-11T14:58:17;101761.59;;;8.00;62.53
43818;BME280;29868;47.360;18.984;2023-02-11T15:00:56;101765.94;;;7.83;63.41
43818;BME280;29868;47.360;18.984;2023-02-11T15:03:46;101762.09;;;7.75;63.56
43818;BME280;29868;47.360;18.984;2023-02-11T15:08:46;101745.75;;;7.58;63.51
43818;BME280;29868;47.360;18.984;2023-02-11T15:11:14;101751.81;;;7.42;63.04